Time;durP1;ratioP1;P1;durP2;ratioP2;P2;SDS_P1;SDS_P2;PMS_P1;PMS_P2;Temp;Humidity;BMP_temperature;BMP_pressure;BME280_temperature;BME280_humidity;BME280_pressure;Samples;Min_cycle;Max_cycle;Signal;HPM_P1;HPM_P2
2023/02/11 00:00:27;;;;;;;9.05;6.88;;;8.30;99.90;;;;;;4896712;29;20045;-77
2023/02/11 00:02:54;;;;;;;11.63;8.40;;;8.20;99.90;;;;;;4881368;29;20045;-79
2023/02/11 00:05:23;;;;;;;9.90;7.22;;;8.30;99.90;;;;;;4882141;29;20045;-78
2023/02/11 00:07:49;;;;;;;11.10;8.02;;;8.30;99.90;;;;;;4881484;29;20112;-77
2023/02/11 00:10:16;;;;;;;9.90;7.72;;;8.30;99.90;;;;;;4882195;29;20059;-78
2023/02/11 00:12:43;;;;;;;10.65;7.68;;;8.30;99.90;;;;;;4881056;29;20045;-78
2023/02/11 00:17:55;;;;;;;11.80;7.75;;;8.30;99.90;;;;;;4896503;29;20483;-78
2023/02/11 00:20:21;;;;;;;9.85;7.20;;;8.40;99.90;;;;;;4896364;29;20079;-78
2023/02/11 00:22:48;;;;;;;11.30;7.68;;;8.40;99.90;;;;;;4895593;29;20480;-78
2023/02/11 00:25:14;;;;;;;11.55;7.80;;;8.40;99.90;;;;;;4896424;29;20068;-78
2023/02/11 00:27:41;;;;;;;9.85;7.95;;;8.40;99.90;;;;;;4880939;29;20429;-78
2023/02/11 00:30:08;;;;;;;10.80;8.10;;;8.40;99.90;;;;;;4896211;29;20480;-79
2023/02/11 00:32:34;;;;;;;8.63;6.90;;;8.40;99.90;;;;;;4896300;29;20488;-77
2023/02/11 00:35:02;;;;;;;10.73;8.18;;;8.40;99.90;;;;;;4881025;29;20045;-78
2023/02/11 00:37:30;;;;;;;10.55;7.18;;;8.40;99.90;;;;;;4881826;29;20449;-78
2023/02/11 00:39:57;;;;;;;12.13;7.85;;;8.40;99.90;;;;;;4896266;29;20425;-78
2023/02/11 00:42:24;;;;;;;13.15;8.25;;;8.40;99.90;;;;;;4881297;29;20049;-78
2023/02/11 00:44:51;;;;;;;9.82;7.57;;;8.40;99.90;;;;;;4881669;29;20045;-78
2023/02/11 00:47:18;;;;;;;9.48;7.70;;;8.40;99.90;;;;;;4880673;29;20091;-78
2023/02/11 00:49:45;;;;;;;8.60;6.68;;;8.40;99.90;;;;;;4881386;29;20044;-78
2023/02/11 00:52:11;;;;;;;8.88;7.18;;;8.40;99.90;;;;;;4880453;29;20051;-80
2023/02/11 00:54:40;;;;;;;13.20;7.90;;;8.40;99.90;;;;;;4895604;29;20391;-78
2023/02/11 00:57:07;;;;;;;10.55;7.10;;;8.40;99.90;;;;;;4895948;29;20056;-78
2023/02/11 00:59:33;;;;;;;8.85;6.40;;;8.40;99.90;;;;;;4881257;29;20115;-78
2023/02/11 01:02:00;;;;;;;10.93;7.63;;;8.40;99.90;;;;;;4894769;29;20048;-77
2023/02/11 01:04:27;;;;;;;11.32;7.40;;;8.30;99.90;;;;;;4881355;29;20128;-78
2023/02/11 01:06:53;;;;;;;12.30;9.10;;;8.40;99.90;;;;;;4895780;29;20049;-77
2023/02/11 01:09:20;;;;;;;10.70;7.10;;;8.40;99.90;;;;;;4894130;29;20064;-78
2023/02/11 01:11:47;;;;;;;9.73;7.78;;;8.40;99.90;;;;;;4895024;29;20045;-77
2023/02/11 01:14:13;;;;;;;12.45;8.45;;;8.40;99.90;;;;;;4880213;29;20044;-78
2023/02/11 01:16:41;;;;;;;10.88;8.82;;;8.40;99.90;;;;;;4881085;29;20065;-78
2023/02/11 01:19:08;;;;;;;11.23;8.43;;;8.40;99.90;;;;;;4881010;29;20426;-77
2023/02/11 01:21:35;;;;;;;10.05;7.50;;;8.40;99.90;;;;;;4880028;29;20045;-78
2023/02/11 01:24:02;;;;;;;10.82;9.20;;;8.30;99.90;;;;;;4895883;29;20415;-77
2023/02/11 01:29:14;;;;;;;9.68;8.52;;;8.40;99.90;;;;;;4880281;29;20049;-79
2023/02/11 01:31:41;;;;;;;12.20;8.18;;;8.40;99.90;;;;;;4880609;29;20049;-78
2023/02/11 01:34:07;;;;;;;11.35;9.18;;;8.40;99.90;;;;;;4894614;29;20389;-78
2023/02/11 01:36:36;;;;;;;11.32;8.27;;;8.40;99.90;;;;;;4895454;29;20131;-77
2023/02/11 01:39:02;;;;;;;13.00;10.80;;;8.40;99.90;;;;;;4895948;29;20053;-78
2023/02/11 01:41:29;;;;;;;11.57;8.80;;;8.40;99.90;;;;;;4878775;29;20357;-78
2023/02/11 01:43:56;;;;;;;12.70;9.93;;;8.40;99.90;;;;;;4895450;29;20045;-77
2023/02/11 01:46:23;;;;;;;12.45;8.93;;;8.40;99.90;;;;;;4881078;29;20140;-77
2023/02/11 01:48:50;;;;;;;12.75;10.07;;;8.30;99.90;;;;;;4894643;29;20059;-77
2023/02/11 01:51:19;;;;;;;13.63;9.68;;;8.40;99.90;;;;;;4895590;29;20140;-77
2023/02/11 01:59:17;;;;;;;10.68;9.13;;;8.40;99.90;;;;;;4895639;29;20049;-77
2023/02/11 02:01:43;;;;;;;11.93;9.32;;;8.40;99.90;;;;;;4894297;29;20045;-77
2023/02/11 02:04:10;;;;;;;14.05;10.45;;;8.40;99.90;;;;;;4884402;29;20491;-78
2023/02/11 02:09:22;;;;;;;14.30;10.38;;;8.40;99.90;;;;;;4898009;29;20049;-80
2023/02/11 02:11:49;;;;;;;13.82;10.20;;;8.40;99.90;;;;;;4883835;29;20059;-79
2023/02/11 02:14:16;;;;;;;13.30;9.10;;;8.40;99.90;;;;;;4898016;29;20384;-80
2023/02/11 02:16:44;;;;;;;11.05;9.38;;;8.40;99.90;;;;;;4883294;29;20045;-79
2023/02/11 02:19:10;;;;;;;11.15;8.75;;;8.40;99.90;;;;;;4883884;29;20387;-80
2023/02/11 02:21:37;;;;;;;12.93;10.48;;;8.40;99.90;;;;;;4897622;29;20110;-80
2023/02/11 02:24:03;;;;;;;11.85;9.70;;;8.40;99.90;;;;;;4883917;29;20468;-79
2023/02/11 02:26:31;;;;;;;12.65;10.05;;;8.40;99.90;;;;;;4898599;29;20056;-80
2023/02/11 02:28:58;;;;;;;15.18;10.23;;;8.40;99.90;;;;;;4883176;29;20068;-77
2023/02/11 02:31:24;;;;;;;15.55;9.70;;;8.40;99.90;;;;;;4883618;29;20057;-80
2023/02/11 02:33:51;;;;;;;14.60;11.25;;;8.40;99.90;;;;;;4883680;29;20064;-78
2023/02/11 02:36:19;;;;;;;13.00;9.38;;;8.40;99.90;;;;;;4897874;29;20041;-78
2023/02/11 02:38:47;;;;;;;13.73;9.70;;;8.40;99.90;;;;;;4883930;29;20045;-78
2023/02/11 02:41:14;;;;;;;14.70;9.80;;;8.40;99.90;;;;;;4882600;29;20049;-78
2023/02/11 02:43:41;;;;;;;11.95;9.30;;;8.40;99.90;;;;;;4883538;29;20052;-78
2023/02/11 02:46:08;;;;;;;12.82;9.43;;;8.40;99.90;;;;;;4883679;29;20105;-78
2023/02/11 02:48:35;;;;;;;12.77;9.70;;;8.40;99.90;;;;;;4882864;29;20080;-78
2023/02/11 02:51:02;;;;;;;10.95;9.02;;;8.40;99.90;;;;;;4883481;29;20101;-78
2023/02/11 02:53:28;;;;;;;11.52;9.05;;;8.40;99.90;;;;;;4883261;29;20041;-78
2023/02/11 02:55:56;;;;;;;13.38;9.27;;;8.50;99.90;;;;;;4882551;29;20053;-78
2023/02/11 02:58:23;;;;;;;15.05;9.77;;;8.40;99.90;;;;;;4883347;29;20059;-78
2023/02/11 03:00:49;;;;;;;15.07;11.20;;;8.40;99.90;;;;;;4897040;29;20045;-78
2023/02/11 03:03:16;;;;;;;12.77;9.95;;;8.40;99.90;;;;;;4898099;29;20048;-78
2023/02/11 03:05:43;;;;;;;13.15;10.18;;;8.40;99.90;;;;;;4897751;29;20081;-79
2023/02/11 03:08:10;;;;;;;12.32;10.48;;;8.40;99.90;;;;;;4882464;29;20053;-78
2023/02/11 03:10:36;;;;;;;15.05;10.55;;;8.40;99.90;;;;;;4883188;29;20104;-78
2023/02/11 03:13:03;;;;;;;14.25;9.70;;;8.40;99.90;;;;;;4882916;29;20049;-78
2023/02/11 03:15:31;;;;;;;11.80;10.02;;;8.40;99.90;;;;;;4896145;29;20045;-78
2023/02/11 03:17:57;;;;;;;10.60;8.68;;;8.40;99.90;;;;;;4882775;29;20083;-78
2023/02/11 03:20:24;;;;;;;15.32;11.35;;;8.40;99.90;;;;;;4882744;29;20052;-77
2023/02/11 03:22:50;;;;;;;14.02;10.52;;;8.30;99.90;;;;;;4881133;29;20053;-78
2023/02/11 03:25:18;;;;;;;13.82;10.40;;;8.30;99.90;;;;;;4882918;29;20053;-77
2023/02/11 03:27:45;;;;;;;12.52;10.57;;;8.30;99.90;;;;;;4897222;29;20045;-78
2023/02/11 03:30:11;;;;;;;16.02;10.55;;;8.30;99.90;;;;;;4897178;29;20069;-77
2023/02/11 03:32:38;;;;;;;11.95;9.82;;;8.30;99.90;;;;;;4881945;29;20369;-78
2023/02/11 03:35:05;;;;;;;18.65;10.82;;;8.30;99.90;;;;;;4882008;29;20041;-77
2023/02/11 03:37:31;;;;;;;13.43;11.23;;;8.30;99.90;;;;;;4882875;29;20073;-77
2023/02/11 03:39:58;;;;;;;14.20;10.75;;;8.30;99.90;;;;;;4882401;29;20037;-77
2023/02/11 03:42:24;;;;;;;13.70;10.10;;;8.30;99.90;;;;;;4881217;29;20076;-79
2023/02/11 03:44:51;;;;;;;14.80;9.90;;;8.30;99.90;;;;;;4897632;29;20060;-77
2023/02/11 03:47:18;;;;;;;11.90;10.15;;;8.30;99.90;;;;;;4881948;29;20461;-79
2023/02/11 03:49:45;;;;;;;13.48;10.10;;;8.30;99.90;;;;;;4882340;29;20045;-78
2023/02/11 03:52:11;;;;;;;12.85;10.57;;;8.30;99.90;;;;;;4882791;29;20045;-77
2023/02/11 03:54:39;;;;;;;11.63;9.48;;;8.30;99.90;;;;;;4881538;29;20037;-78
2023/02/11 03:57:06;;;;;;;12.63;9.82;;;8.30;99.90;;;;;;4897205;29;20052;-79
2023/02/11 03:59:32;;;;;;;12.52;9.55;;;8.30;99.90;;;;;;4882095;29;20444;-79
2023/02/11 04:01:59;;;;;;;17.42;10.82;;;8.30;99.90;;;;;;4881372;29;20059;-78
2023/02/11 04:04:26;;;;;;;15.70;11.15;;;8.20;99.90;;;;;;4896698;29;20049;-78
2023/02/11 04:06:52;;;;;;;13.95;10.40;;;8.20;99.90;;;;;;4882096;29;20052;-79
2023/02/11 04:09:19;;;;;;;16.52;11.68;;;8.10;99.90;;;;;;4881173;29;20101;-78
2023/02/11 04:11:46;;;;;;;14.48;10.43;;;8.10;99.90;;;;;;4881745;29;20064;-78
2023/02/11 04:14:12;;;;;;;16.10;11.55;;;8.00;99.90;;;;;;4881091;29;20073;-78
2023/02/11 04:16:39;;;;;;;12.70;9.95;;;8.00;99.90;;;;;;4896656;29;20049;-82
2023/02/11 04:19:06;;;;;;;14.88;10.07;;;8.00;99.90;;;;;;4896201;29;20488;-80
2023/02/11 04:21:32;;;;;;;13.43;10.63;;;7.90;99.90;;;;;;4880899;29;20127;-80
2023/02/11 04:23:59;;;;;;;14.90;10.85;;;8.00;99.90;;;;;;4881956;29;20048;-80
2023/02/11 04:26:26;;;;;;;13.88;10.80;;;8.00;99.90;;;;;;4881621;29;20052;-80
2023/02/11 04:28:52;;;;;;;12.23;9.65;;;8.00;99.90;;;;;;4895511;29;20136;-80
2023/02/11 04:31:19;;;;;;;13.23;10.23;;;8.10;99.90;;;;;;4881561;29;20049;-81
2023/02/11 04:33:46;;;;;;;13.35;9.88;;;8.10;99.90;;;;;;4881756;29;20125;-80
2023/02/11 04:38:58;;;;;;;14.20;10.48;;;8.10;99.90;;;;;;4896220;29;20053;-80
2023/02/11 04:41:24;;;;;;;16.60;11.10;;;8.10;99.90;;;;;;4895299;29;20103;-79
2023/02/11 04:43:51;;;;;;;11.73;9.55;;;8.10;99.90;;;;;;4896028;29;20096;-79
2023/02/11 04:49:04;;;;;;;12.65;9.20;;;8.10;99.90;;;;;;4880612;29;20049;-79
2023/02/11 04:51:30;;;;;;;12.68;10.07;;;8.10;99.90;;;;;;4881049;29;20116;-80
2023/02/11 04:53:57;;;;;;;13.60;10.60;;;8.10;99.90;;;;;;4880539;29;20368;-79
2023/02/11 04:56:26;;;;;;;16.10;9.77;;;8.20;99.90;;;;;;4895810;29;20041;-80
2023/02/11 04:58:53;;;;;;;11.15;8.27;;;8.20;99.90;;;;;;4896395;29;20049;-79
2023/02/11 05:01:19;;;;;;;14.75;10.38;;;8.20;99.90;;;;;;4880072;29;20060;-78
2023/02/11 05:03:46;;;;;;;11.90;8.60;;;8.20;99.90;;;;;;4881140;29;20069;-79
2023/02/11 05:06:14;;;;;;;12.55;8.55;;;8.20;99.90;;;;;;4881006;29;20065;-78
2023/02/11 05:08:40;;;;;;;11.90;9.30;;;8.20;99.90;;;;;;4894831;29;20516;-80
2023/02/11 05:11:07;;;;;;;10.82;8.65;;;8.20;99.90;;;;;;4881215;29;20074;-79
2023/02/11 05:13:34;;;;;;;12.98;7.97;;;8.20;99.90;;;;;;4880899;29;20064;-79
2023/02/11 05:16:01;;;;;;;9.95;8.02;;;8.20;99.90;;;;;;4880705;29;20037;-79
2023/02/11 05:18:28;;;;;;;12.32;8.90;;;8.20;99.90;;;;;;4880853;29;20073;-80
2023/02/11 05:20:55;;;;;;;10.00;7.90;;;8.20;99.90;;;;;;4878904;29;20052;-79
2023/02/11 05:23:21;;;;;;;12.05;8.63;;;8.30;99.90;;;;;;4881101;29;20056;-79
2023/02/11 05:25:48;;;;;;;8.93;7.90;;;8.30;99.90;;;;;;4881080;29;20053;-79
2023/02/11 05:28:15;;;;;;;10.82;7.38;;;8.30;99.90;;;;;;4880249;29;20520;-79
2023/02/11 05:30:42;;;;;;;13.63;9.45;;;8.30;99.90;;;;;;4880489;29;20116;-79
2023/02/11 05:33:09;;;;;;;10.25;7.35;;;8.30;99.90;;;;;;4895305;29;20389;-80
2023/02/11 05:35:35;;;;;;;11.65;8.02;;;8.30;99.90;;;;;;4894522;29;20041;-79
2023/02/11 05:38:02;;;;;;;11.00;8.20;;;8.30;99.90;;;;;;4885073;29;20045;-79
2023/02/11 05:40:29;;;;;;;13.02;6.78;;;8.30;99.90;;;;;;4886808;29;20049;-79
2023/02/11 05:42:55;;;;;;;13.05;8.07;;;8.30;99.90;;;;;;4886092;29;20041;-79
2023/02/11 05:45:22;;;;;;;14.40;7.78;;;8.30;99.90;;;;;;4886906;29;20460;-78
2023/02/11 05:47:48;;;;;;;10.13;7.55;;;8.30;99.90;;;;;;4886183;29;20049;-79
2023/02/11 05:50:15;;;;;;;11.65;7.57;;;8.30;99.90;;;;;;4886897;29;20124;-80
2023/02/11 05:52:42;;;;;;;10.38;6.88;;;8.30;99.90;;;;;;4901517;29;20053;-79
2023/02/11 05:55:09;;;;;;;9.80;7.13;;;8.30;99.90;;;;;;4900761;29;20045;-78
2023/02/11 05:57:35;;;;;;;8.43;5.90;;;8.30;99.90;;;;;;4887220;29;20127;-79
2023/02/11 06:00:02;;;;;;;8.85;6.72;;;8.30;99.90;;;;;;4886641;29;20053;-79
2023/02/11 06:02:37;;;;;;;9.95;7.32;;;8.30;99.90;;;;;;4886063;29;20386;-79
2023/02/11 06:07:51;;;;;;;9.40;6.30;;;8.30;99.90;;;;;;4885115;29;20057;-79
2023/02/11 06:10:19;;;;;;;11.20;6.55;;;8.30;99.90;;;;;;4901165;29;20053;-79
2023/02/11 06:12:45;;;;;;;9.00;6.18;;;8.40;99.90;;;;;;4886679;29;20048;-79
2023/02/11 06:15:13;;;;;;;9.95;6.80;;;8.40;99.90;;;;;;4886082;29;20041;-79
2023/02/11 06:17:40;;;;;;;8.65;6.53;;;8.30;99.90;;;;;;4885753;29;20049;-79
2023/02/11 06:20:07;;;;;;;12.63;7.90;;;8.40;99.90;;;;;;4886424;29;20057;-79
2023/02/11 06:22:34;;;;;;;10.50;7.15;;;8.40;99.90;;;;;;4885882;29;20063;-79
2023/02/11 06:25:01;;;;;;;12.68;6.63;;;8.40;99.90;;;;;;4886701;29;20068;-79
2023/02/11 06:27:28;;;;;;;10.43;5.85;;;8.40;99.90;;;;;;4900769;29;20086;-79
2023/02/11 06:29:55;;;;;;;10.40;6.45;;;8.40;99.90;;;;;;4886557;29;20069;-80
2023/02/11 06:32:22;;;;;;;9.15;6.03;;;8.40;99.90;;;;;;4887073;29;20109;-79
2023/02/11 06:35:09;;;;;;;12.10;6.43;;;8.40;99.90;;;;;;4885774;29;20473;-79
2023/02/11 06:37:37;;;;;;;7.95;5.82;;;8.40;99.90;;;;;;4901279;29;20037;-79
2023/02/11 06:40:04;;;;;;;7.35;5.50;;;8.40;99.90;;;;;;4886799;29;20068;-79
2023/02/11 06:42:31;;;;;;;10.68;6.38;;;8.50;99.90;;;;;;4885765;29;20391;-79
2023/02/11 06:45:00;;;;;;;9.27;5.50;;;8.40;99.90;;;;;;4886448;29;20064;-79
2023/02/11 06:47:26;;;;;;;9.93;5.80;;;8.40;99.90;;;;;;4900685;29;20124;-79
2023/02/11 06:49:53;;;;;;;12.63;6.25;;;8.40;99.90;;;;;;4882704;29;20318;-80
2023/02/11 06:52:19;;;;;;;10.20;5.47;;;8.40;99.90;;;;;;4883748;29;20052;-79
2023/02/11 06:54:46;;;;;;;9.52;5.95;;;8.40;99.90;;;;;;4882645;29;20049;-79
2023/02/11 06:57:13;;;;;;;10.68;6.38;;;8.50;99.90;;;;;;4883500;29;20042;-80
2023/02/11 06:59:40;;;;;;;7.72;5.38;;;8.50;99.90;;;;;;4883204;29;20048;-79
2023/02/11 07:02:06;;;;;;;10.82;6.13;;;8.50;99.90;;;;;;4897217;29;20045;-79
2023/02/11 07:04:35;;;;;;;9.40;5.43;;;8.50;99.90;;;;;;4898180;29;20113;-79
2023/02/11 07:07:02;;;;;;;10.97;4.90;;;8.50;99.90;;;;;;4883494;29;20045;-79
2023/02/11 07:09:29;;;;;;;7.70;5.50;;;8.50;99.90;;;;;;4876676;29;20048;-77
2023/02/11 07:12:16;;;;;;;10.93;5.65;;;8.50;99.90;;;;;;4894050;29;20056;-79
2023/02/11 07:14:53;;;;;;;;;;;;;;;;;;;;;
2023/02/11 07:17:39;;;;;;;10.35;5.45;;;8.50;99.90;;;;;;4895284;29;20025;-79
2023/02/11 07:20:05;;;;;;;6.25;4.85;;;8.50;99.90;;;;;;4881359;29;20053;-79
2023/02/11 07:22:32;;;;;;;8.45;4.85;;;8.50;99.90;;;;;;4881919;29;20049;-80
2023/02/11 07:25:01;;;;;;;9.57;5.38;;;8.50;99.90;;;;;;4897483;29;20392;-82
2023/02/11 07:27:27;;;;;;;9.90;5.40;;;8.50;99.90;;;;;;4874768;29;20048;-79
2023/02/11 07:29:54;;;;;;;9.02;4.85;;;8.50;99.90;;;;;;4897287;29;20064;-79
2023/02/11 07:32:21;;;;;;;7.88;5.32;;;8.50;99.90;;;;;;4897241;29;20147;-79
2023/02/11 07:34:49;;;;;;;8.57;5.30;;;8.50;99.90;;;;;;4882104;29;20041;-79
2023/02/11 07:37:15;;;;;;;8.88;6.15;;;8.50;99.90;;;;;;4882631;29;20041;-79
2023/02/11 07:39:42;;;;;;;7.40;4.65;;;8.50;99.90;;;;;;4882275;29;20413;-78
2023/02/11 07:42:09;;;;;;;10.10;4.78;;;8.50;99.90;;;;;;4882073;29;20049;-80
2023/02/11 07:44:35;;;;;;;8.90;4.85;;;8.50;99.90;;;;;;4882825;29;20049;-79
2023/02/11 07:47:02;;;;;;;10.18;4.88;;;8.50;99.90;;;;;;4897017;29;20053;-79
2023/02/11 07:49:29;;;;;;;7.63;4.45;;;8.60;99.90;;;;;;4896440;29;20101;-79
2023/02/11 07:51:55;;;;;;;9.20;4.72;;;8.50;99.90;;;;;;4882318;29;20041;-78
2023/02/11 07:54:22;;;;;;;9.55;6.35;;;8.60;99.90;;;;;;4881523;29;20097;-80
2023/02/11 07:56:49;;;;;;;5.90;4.25;;;8.60;99.90;;;;;;4882457;29;20045;-79
2023/02/11 07:59:15;;;;;;;7.85;4.45;;;8.60;99.90;;;;;;4882116;29;20041;-79
2023/02/11 08:01:42;;;;;;;7.07;4.25;;;8.60;99.90;;;;;;4881795;29;20049;-79
2023/02/11 08:04:09;;;;;;;7.18;3.83;;;8.70;99.90;;;;;;4882977;29;20048;-80
2023/02/11 08:09:24;;;;;;;9.13;4.00;;;8.70;99.90;;;;;;4881151;29;20109;-79
2023/02/11 08:11:51;;;;;;;7.47;3.95;;;8.70;99.90;;;;;;4896695;29;20055;-80
2023/02/11 08:14:19;;;;;;;6.35;3.22;;;8.80;99.90;;;;;;4881520;29;20052;-80
2023/02/11 08:19:32;;;;;;;8.85;3.88;;;8.80;99.90;;;;;;4882117;29;20148;-79
2023/02/11 08:22:00;;;;;;;8.57;4.13;;;8.80;99.90;;;;;;4882222;29;20091;-80
2023/02/11 08:24:27;;;;;;;7.47;4.05;;;8.80;99.90;;;;;;4880997;29;20041;-80
2023/02/11 08:26:54;;;;;;;5.85;3.13;;;8.80;99.90;;;;;;4880977;29;20358;-79
2023/02/11 08:29:21;;;;;;;4.32;3.00;;;8.80;99.90;;;;;;4864479;29;20068;-81
2023/02/11 08:31:47;;;;;;;7.25;3.95;;;8.90;99.90;;;;;;4881861;29;20140;-81
2023/02/11 08:34:17;;;;;;;6.53;3.38;;;8.90;99.90;;;;;;4880974;29;20996;-80
2023/02/11 08:36:45;;;;;;;6.70;3.42;;;8.90;99.90;;;;;;4881535;29;20041;-81
2023/02/11 08:39:12;;;;;;;5.07;3.63;;;9.00;99.90;;;;;;4881494;29;20052;-80
2023/02/11 08:41:45;;;;;;;5.97;3.05;;;9.00;99.90;;;;;;4880544;29;20449;-80
2023/02/11 08:44:12;;;;;;;8.57;3.70;;;9.10;99.90;;;;;;4881805;29;20442;-82
2023/02/11 08:49:24;;;;;;;5.20;3.45;;;9.20;99.90;;;;;;4901832;29;20536;-78
2023/02/11 08:51:51;;;;;;;4.05;2.15;;;9.20;99.90;;;;;;4885579;29;20056;-80
2023/02/11 08:54:17;;;;;;;4.03;2.47;;;9.20;99.90;;;;;;4895111;29;20049;-79
2023/02/11 08:56:47;;;;;;;4.22;2.30;;;9.30;99.90;;;;;;4881367;29;20041;-78
2023/02/11 08:59:14;;;;;;;6.47;3.00;;;9.40;99.90;;;;;;4880166;29;20064;-83
2023/02/11 09:01:42;;;;;;;6.45;2.55;;;9.40;99.90;;;;;;4880367;29;20461;-80
2023/02/11 09:04:09;;;;;;;5.22;2.55;;;9.40;99.90;;;;;;4881387;29;20450;-80
2023/02/11 09:06:37;;;;;;;5.85;2.38;;;9.50;99.90;;;;;;4880489;29;20097;-79
2023/02/11 09:09:04;;;;;;;5.95;2.35;;;9.50;99.90;;;;;;4861357;29;20392;-85
2023/02/11 09:11:30;;;;;;;6.05;2.45;;;9.50;99.90;;;;;;4877145;29;20053;-81
2023/02/11 09:13:57;;;;;;;5.88;2.58;;;9.50;99.90;;;;;;4875901;29;20137;-82
2023/02/11 09:16:26;;;;;;;7.07;2.95;;;9.50;99.90;;;;;;4862581;29;20051;-82
2023/02/11 09:18:53;;;;;;;7.05;2.47;;;9.60;99.90;;;;;;4877044;29;20144;-80
2023/02/11 09:21:20;;;;;;;5.25;2.20;;;9.60;99.90;;;;;;4876054;29;20045;-82
2023/02/11 09:23:47;;;;;;;5.90;2.90;;;9.60;99.90;;;;;;4876837;29;20144;-82
2023/02/11 09:26:15;;;;;;;5.68;2.40;;;9.60;99.90;;;;;;4862368;29;20124;-80
2023/02/11 09:28:42;;;;;;;5.23;2.23;;;9.60;99.90;;;;;;4861720;29;20056;-82
2023/02/11 09:31:09;;;;;;;5.28;2.10;;;9.70;99.90;;;;;;4876744;29;20042;-81
2023/02/11 09:33:35;;;;;;;4.72;2.40;;;9.70;99.90;;;;;;4875231;29;20049;-81
2023/02/11 09:38:49;;;;;;;5.00;2.40;;;9.80;99.90;;;;;;4862340;29;20049;-81
2023/02/11 09:41:16;;;;;;;5.38;2.20;;;9.80;99.90;;;;;;4875795;29;20068;-82
2023/02/11 09:43:43;;;;;;;4.28;2.67;;;9.80;99.90;;;;;;4861488;29;20057;-81
2023/02/11 09:48:55;;;;;;;6.45;2.38;;;9.90;99.90;;;;;;4861272;29;20116;-81
2023/02/11 09:51:22;;;;;;;3.72;2.33;;;9.90;99.90;;;;;;4862795;29;20050;-82
2023/02/11 09:53:49;;;;;;;6.82;2.42;;;9.90;99.90;;;;;;4862252;29;20087;-82
2023/02/11 09:56:17;;;;;;;4.20;1.95;;;9.90;99.90;;;;;;4860328;29;20116;-80
2023/02/11 09:58:44;;;;;;;6.65;2.63;;;10.00;99.90;;;;;;4862133;29;20061;-81
2023/02/11 10:01:11;;;;;;;3.65;2.10;;;10.00;99.90;;;;;;4860269;29;20490;-81
2023/02/11 10:03:37;;;;;;;5.60;2.45;;;10.00;99.90;;;;;;4861184;29;20050;-80
2023/02/11 10:08:50;;;;;;;3.42;1.98;;;10.10;99.90;;;;;;4893681;29;20144;-82
2023/02/11 10:11:16;;;;;;;3.67;2.15;;;10.10;99.90;;;;;;4884291;29;20041;-82
2023/02/11 10:13:57;;;;;;;6.05;2.30;;;10.10;99.90;;;;;;4894771;29;20052;-82
2023/02/11 10:19:12;;;;;;;6.53;2.20;;;10.20;99.90;;;;;;4880032;29;20057;-81
2023/02/11 10:21:42;;;;;;;3.47;2.45;;;10.30;99.90;;;;;;4882995;29;20141;-81
2023/02/11 10:24:09;;;;;;;;;;;10.30;99.90;;;;;;4881993;29;20045;-81
2023/02/11 10:26:37;;;;;;;6.13;2.08;;;10.20;99.90;;;;;;4893449;29;20259;-83
2023/02/11 10:29:03;;;;;;;4.00;2.10;;;10.20;99.90;;;;;;4883403;29;20053;-83
2023/02/11 10:31:30;;;;;;;6.03;2.17;;;10.20;99.90;;;;;;4905688;29;20048;-83
2023/02/11 10:33:57;;;;;;;2.92;1.88;;;10.20;99.90;;;;;;4885131;29;20072;-83
2023/02/11 10:39:27;;;;;;;4.90;2.05;;;10.30;99.90;;;;;;4886762;29;20029;-83
2023/02/11 10:41:53;;;;;;;5.70;1.92;;;10.40;99.90;;;;;;4897121;29;20044;-84
2023/02/11 10:44:20;;;;;;;5.70;1.92;;;10.40;99.90;;;;;;4886752;29;20079;-82
2023/02/11 10:46:47;;;;;;;7.07;2.28;;;10.40;99.90;;;;;;4882244;29;20070;-83
2023/02/11 10:49:13;;;;;;;8.55;3.08;;;10.40;99.90;;;;;;4899653;29;20063;-80
2023/02/11 10:51:40;;;;;;;4.97;1.85;;;10.40;99.90;;;;;;4883369;29;20067;-81
2023/02/11 10:54:07;;;;;;;3.38;1.95;;;10.40;99.90;;;;;;4882507;29;20476;-80
2023/02/11 10:59:05;;;;;;;5.00;2.13;;;10.50;99.90;;;;;;4888245;29;20468;-80
2023/02/11 11:01:32;;;;;;;4.95;2.35;;;10.50;99.90;;;;;;4882548;29;20128;-81
2023/02/11 11:03:59;;;;;;;5.55;2.30;;;10.60;99.90;;;;;;4883640;29;20045;-81
2023/02/11 11:06:25;;;;;;;3.47;2.13;;;10.50;99.90;;;;;;4896612;29;20060;-81
2023/02/11 11:08:52;;;;;;;3.58;2.20;;;10.50;99.90;;;;;;4880611;29;20431;-81
2023/02/11 11:11:19;;;;;;;4.43;2.15;;;10.50;99.90;;;;;;4882927;29;20044;-81
2023/02/11 11:13:45;;;;;;;5.28;2.25;;;10.50;99.90;;;;;;4897707;29;20144;-81
2023/02/11 11:16:12;;;;;;;4.95;2.40;;;10.50;99.90;;;;;;4881858;29;20064;-81
2023/02/11 11:18:39;;;;;;;5.72;2.38;;;10.50;99.90;;;;;;4882688;29;20349;-81
2023/02/11 11:21:06;;;;;;;4.25;2.00;;;10.50;99.90;;;;;;4896110;29;20053;-81
2023/02/11 11:23:33;;;;;;;2.88;2.28;;;10.60;99.90;;;;;;4897481;29;20045;-80
2023/02/11 11:25:59;;;;;;;3.97;2.38;;;10.70;99.90;;;;;;4882788;29;20484;-81
2023/02/11 11:28:26;;;;;;;4.82;3.13;;;10.70;99.90;;;;;;4896396;29;20127;-81
2023/02/11 11:30:52;;;;;;;5.63;3.67;;;10.70;99.90;;;;;;4882392;29;20045;-82
2023/02/11 11:33:20;;;;;;;4.88;2.30;;;10.70;99.90;;;;;;4897436;29;20164;-82
2023/02/11 11:35:46;;;;;;;4.07;2.50;;;10.80;99.90;;;;;;4881108;29;20104;-81
2023/02/11 11:38:13;;;;;;;4.70;2.35;;;10.80;99.90;;;;;;4883010;29;20444;-82
2023/02/11 11:40:40;;;;;;;6.00;2.30;;;10.90;99.90;;;;;;4895988;29;20045;-81
2023/02/11 11:43:06;;;;;;;4.78;2.50;;;10.90;99.90;;;;;;4882586;29;20044;-81
2023/02/11 11:45:33;;;;;;;4.90;2.35;;;10.90;99.90;;;;;;4896713;29;20075;-81
2023/02/11 11:47:59;;;;;;;4.22;2.15;;;10.90;99.90;;;;;;4881607;29;20045;-82
2023/02/11 11:50:26;;;;;;;4.60;2.25;;;10.90;99.90;;;;;;4896839;29;20045;-83
2023/02/11 11:52:53;;;;;;;3.72;2.20;;;10.90;99.90;;;;;;4882534;29;20045;-81
2023/02/11 11:55:19;;;;;;;4.97;2.35;;;10.90;99.90;;;;;;4880240;29;20101;-80
2023/02/11 11:57:46;;;;;;;6.30;1.98;;;10.90;99.90;;;;;;4897110;29;20131;-81
2023/02/11 12:00:13;;;;;;;4.07;1.92;;;10.90;99.90;;;;;;4896284;29;20052;-81
2023/02/11 12:02:40;;;;;;;6.50;1.83;;;11.00;99.90;;;;;;4895816;29;20100;-81
2023/02/11 12:05:07;;;;;;;3.83;1.73;;;11.00;99.90;;;;;;4897171;29;20368;-81
2023/02/11 12:07:34;;;;;;;5.03;2.20;;;11.00;99.90;;;;;;4881182;29;20409;-81
2023/02/11 12:10:00;;;;;;;3.58;2.03;;;11.00;99.90;;;;;;4881727;29;20049;-81
2023/02/11 12:12:31;;;;;;;5.97;2.03;;;11.00;99.90;;;;;;4881089;29;20072;-80
2023/02/11 12:14:57;;;;;;;4.35;2.00;;;11.00;99.90;;;;;;4881038;29;20547;-81
2023/02/11 12:17:24;;;;;;;4.03;2.17;;;11.10;99.90;;;;;;4882013;29;20052;-81
2023/02/11 12:19:51;;;;;;;3.75;2.33;;;11.00;99.90;;;;;;4896479;29;20061;-81
2023/02/11 12:22:17;;;;;;;3.92;2.40;;;11.10;99.90;;;;;;4880269;29;20051;-80
2023/02/11 12:24:44;;;;;;;5.40;2.17;;;11.20;99.90;;;;;;4882842;29;20432;-80
2023/02/11 12:27:12;;;;;;;5.82;2.67;;;11.10;99.90;;;;;;4897512;29;20136;-81
2023/02/11 12:29:39;;;;;;;4.63;2.10;;;11.10;99.90;;;;;;4896366;29;20067;-81
2023/02/11 12:32:06;;;;;;;4.95;2.30;;;11.20;99.90;;;;;;4881821;29;20044;-81
2023/02/11 12:34:33;;;;;;;5.78;2.30;;;11.20;99.90;;;;;;4880596;29;20055;-81
2023/02/11 12:37:00;;;;;;;5.78;2.85;;;11.20;99.90;;;;;;4881605;29;20052;-81
2023/02/11 12:39:28;;;;;;;7.65;2.75;;;11.20;99.90;;;;;;4881194;29;20046;-81
2023/02/11 12:44:40;;;;;;;5.30;2.10;;;11.30;99.90;;;;;;4896164;29;20063;-81
2023/02/11 12:47:07;;;;;;;7.57;2.45;;;11.30;99.90;;;;;;4895070;29;20057;-81
2023/02/11 12:49:34;;;;;;;4.90;2.30;;;11.20;99.90;;;;;;4879866;29;20464;-81
2023/02/11 12:52:00;;;;;;;5.80;2.17;;;11.20;99.90;;;;;;4895899;29;20044;-81
2023/02/11 12:54:27;;;;;;;3.65;2.30;;;11.20;99.90;;;;;;4880192;29;20472;-81
2023/02/11 12:56:54;;;;;;;7.43;2.30;;;11.30;99.90;;;;;;4881252;29;20037;-81
2023/02/11 12:59:20;;;;;;;8.18;3.75;;;11.30;99.90;;;;;;4879954;29;20458;-81
2023/02/11 13:01:47;;;;;;;7.18;2.85;;;11.40;99.90;;;;;;4880119;29;20041;-81
2023/02/11 13:04:13;;;;;;;5.88;2.03;;;11.30;99.90;;;;;;4881163;29;20088;-81
2023/02/11 13:06:40;;;;;;;5.80;2.05;;;11.30;99.90;;;;;;4881085;29;20115;-81
2023/02/11 13:09:07;;;;;;;5.65;2.15;;;11.30;99.90;;;;;;4894031;29;20468;-81
2023/02/11 13:11:33;;;;;;;5.75;2.60;;;11.30;99.90;;;;;;4895613;29;20460;-81
2023/02/11 13:14:00;;;;;;;8.60;2.70;;;11.20;99.90;;;;;;4880096;29;20044;-81
2023/02/11 13:16:28;;;;;;;10.18;3.13;;;11.20;99.90;;;;;;4880949;29;20048;-81
2023/02/11 13:18:55;;;;;;;7.35;3.15;;;11.30;99.90;;;;;;4880420;29;20075;-81
2023/02/11 13:21:21;;;;;;;5.82;2.53;;;11.30;99.90;;;;;;4879969;29;20048;-81
2023/02/11 13:23:48;;;;;;;6.50;2.30;;;11.30;99.90;;;;;;4880749;29;20060;-81
2023/02/11 13:26:15;;;;;;;6.53;2.60;;;11.30;99.90;;;;;;4880945;29;20140;-81
2023/02/11 13:28:41;;;;;;;4.68;2.90;;;11.30;99.90;;;;;;4879485;29;20479;-81
2023/02/11 13:31:08;;;;;;;5.93;3.42;;;11.30;99.90;;;;;;4895393;29;20464;-80
2023/02/11 13:33:35;;;;;;;4.45;3.03;;;11.40;99.90;;;;;;4895400;29;20049;-80
2023/02/11 13:36:01;;;;;;;6.05;2.45;;;11.40;99.90;;;;;;4879804;29;20045;-81
2023/02/11 13:38:30;;;;;;;4.97;2.53;;;11.30;99.90;;;;;;4880630;29;20072;-81